sensor_id;sensor_type;location;lat;lon;timestamp;P1;durP1;ratioP1;P2;durP2;ratioP2
58496;SDS011;44284;51.310;16.904;2022-12-07T00:01:42;49.60;;;17.42;;
58496;SDS011;44284;51.310;16.904;2022-12-07T00:04:13;37.17;;;15.23;;
58496;SDS011;44284;51.310;16.904;2022-12-07T00:06:40;35.25;;;16.08;;
58496;SDS011;44284;51.310;16.904;2022-12-07T00:09:09;32.42;;;14.18;;
58496;SDS011;44284;51.310;16.904;2022-12-07T00:11:35;20.25;;;9.57;;
58496;SDS011;44284;51.310;16.904;2022-12-07T00:14:02;32.13;;;14.65;;
58496;SDS011;44284;51.310;16.904;2022-12-07T00:16:30;67.20;;;25.73;;
58496;SDS011;44284;51.310;16.904;2022-12-07T00:18:57;43.45;;;20.40;;
58496;SDS011;44284;51.310;16.904;2022-12-07T00:21:24;27.35;;;11.95;;
58496;SDS011;44284;51.310;16.904;2022-12-07T00:23:50;20.02;;;9.10;;
58496;SDS011;44284;51.310;16.904;2022-12-07T00:26:27;29.80;;;12.73;;
58496;SDS011;44284;51.310;16.904;2022-12-07T00:28:54;23.05;;;10.50;;
58496;SDS011;44284;51.310;16.904;2022-12-07T00:31:22;22.70;;;11.25;;
58496;SDS011;44284;51.310;16.904;2022-12-07T00:33:48;17.98;;;9.45;;
58496;SDS011;44284;51.310;16.904;2022-12-07T00:36:16;44.13;;;19.92;;
58496;SDS011;44284;51.310;16.904;2022-12-07T00:38:42;32.83;;;14.48;;
58496;SDS011;44284;51.310;16.904;2022-12-07T00:41:10;15.25;;;7.68;;
58496;SDS011;44284;51.310;16.904;2022-12-07T00:43:36;21.75;;;10.02;;
58496;SDS011;44284;51.310;16.904;2022-12-07T00:46:02;34.03;;;16.38;;
58496;SDS011;44284;51.310;16.904;2022-12-07T00:48:29;18.27;;;8.90;;
58496;SDS011;44284;51.310;16.904;2022-12-07T00:50:55;18.60;;;8.70;;
58496;SDS011;44284;51.310;16.904;2022-12-07T00:53:21;20.80;;;10.38;;
58496;SDS011;44284;51.310;16.904;2022-12-07T00:55:47;19.08;;;9.18;;
58496;SDS011;44284;51.310;16.904;2022-12-07T00:58:13;14.65;;;8.75;;
58496;SDS011;44284;51.310;16.904;2022-12-07T01:00:40;17.00;;;8.07;;
58496;SDS011;44284;51.310;16.904;2022-12-07T01:03:07;19.60;;;8.70;;
58496;SDS011;44284;51.310;16.904;2022-12-07T01:05:34;30.48;;;14.82;;
58496;SDS011;44284;51.310;16.904;2022-12-07T01:08:00;19.30;;;9.75;;
58496;SDS011;44284;51.310;16.904;2022-12-07T01:10:26;15.60;;;8.02;;
58496;SDS011;44284;51.310;16.904;2022-12-07T01:12:53;18.00;;;8.88;;
58496;SDS011;44284;51.310;16.904;2022-12-07T01:15:19;19.58;;;9.60;;
58496;SDS011;44284;51.310;16.904;2022-12-07T01:17:45;21.80;;;8.95;;
58496;SDS011;44284;51.310;16.904;2022-12-07T01:20:12;11.25;;;5.47;;
58496;SDS011;44284;51.310;16.904;2022-12-07T01:22:38;12.35;;;6.78;;
58496;SDS011;44284;51.310;16.904;2022-12-07T01:25:05;14.30;;;6.70;;
58496;SDS011;44284;51.310;16.904;2022-12-07T01:27:32;10.27;;;5.50;;
58496;SDS011;44284;51.310;16.904;2022-12-07T01:29:58;14.07;;;6.50;;
58496;SDS011;44284;51.310;16.904;2022-12-07T01:32:24;12.25;;;5.82;;
58496;SDS011;44284;51.310;16.904;2022-12-07T01:34:50;12.88;;;6.28;;
58496;SDS011;44284;51.310;16.904;2022-12-07T01:37:16;10.60;;;5.35;;
58496;SDS011;44284;51.310;16.904;2022-12-07T01:39:42;12.60;;;6.40;;
58496;SDS011;44284;51.310;16.904;2022-12-07T01:42:09;17.95;;;7.50;;
58496;SDS011;44284;51.310;16.904;2022-12-07T01:47:20;13.27;;;7.40;;
58496;SDS011;44284;51.310;16.904;2022-12-07T01:49:47;11.82;;;5.85;;
58496;SDS011;44284;51.310;16.904;2022-12-07T01:52:20;10.20;;;5.40;;
58496;SDS011;44284;51.310;16.904;2022-12-07T01:54:49;10.88;;;5.65;;
58496;SDS011;44284;51.310;16.904;2022-12-07T01:57:16;13.68;;;6.18;;
58496;SDS011;44284;51.310;16.904;2022-12-07T01:59:43;11.57;;;6.05;;
58496;SDS011;44284;51.310;16.904;2022-12-07T02:02:12;12.50;;;4.68;;
58496;SDS011;44284;51.310;16.904;2022-12-07T02:04:39;9.30;;;4.15;;
58496;SDS011;44284;51.310;16.904;2022-12-07T02:07:05;10.80;;;5.35;;
58496;SDS011;44284;51.310;16.904;2022-12-07T02:09:32;7.55;;;4.55;;
58496;SDS011;44284;51.310;16.904;2022-12-07T02:11:58;9.65;;;3.97;;
58496;SDS011;44284;51.310;16.904;2022-12-07T02:14:24;6.95;;;3.80;;
58496;SDS011;44284;51.310;16.904;2022-12-07T02:22:02;10.20;;;4.60;;
58496;SDS011;44284;51.310;16.904;2022-12-07T02:30:04;9.52;;;4.72;;
58496;SDS011;44284;51.310;16.904;2022-12-07T02:32:49;10.27;;;4.80;;
58496;SDS011;44284;51.310;16.904;2022-12-07T02:35:21;10.90;;;5.07;;
58496;SDS011;44284;51.310;16.904;2022-12-07T02:43:06;6.75;;;3.28;;
58496;SDS011;44284;51.310;16.904;2022-12-07T02:45:34;16.35;;;7.97;;
58496;SDS011;44284;51.310;16.904;2022-12-07T02:48:00;6.43;;;3.65;;
58496;SDS011;44284;51.310;16.904;2022-12-07T02:50:27;8.80;;;4.65;;
58496;SDS011;44284;51.310;16.904;2022-12-07T02:52:54;6.18;;;3.30;;
58496;SDS011;44284;51.310;16.904;2022-12-07T02:55:21;7.10;;;3.08;;
58496;SDS011;44284;51.310;16.904;2022-12-07T03:00:15;6.60;;;3.17;;
58496;SDS011;44284;51.310;16.904;2022-12-07T03:02:56;5.50;;;2.58;;
58496;SDS011;44284;51.310;16.904;2022-12-07T03:10:34;4.60;;;2.22;;
58496;SDS011;44284;51.310;16.904;2022-12-07T03:17:57;6.32;;;3.15;;
58496;SDS011;44284;51.310;16.904;2022-12-07T03:20:23;7.75;;;4.47;;
58496;SDS011;44284;51.310;16.904;2022-12-07T03:22:51;7.38;;;3.88;;
58496;SDS011;44284;51.310;16.904;2022-12-07T03:25:18;4.22;;;2.17;;
58496;SDS011;44284;51.310;16.904;2022-12-07T03:27:46;7.97;;;3.42;;
58496;SDS011;44284;51.310;16.904;2022-12-07T03:30:18;8.20;;;3.35;;
58496;SDS011;44284;51.310;16.904;2022-12-07T03:32:53;4.85;;;2.17;;
58496;SDS011;44284;51.310;16.904;2022-12-07T03:35:41;4.97;;;2.55;;
58496;SDS011;44284;51.310;16.904;2022-12-07T03:38:20;4.85;;;2.55;;
58496;SDS011;44284;51.310;16.904;2022-12-07T03:40:48;4.20;;;2.05;;
58496;SDS011;44284;51.310;16.904;2022-12-07T03:43:15;6.60;;;3.15;;
58496;SDS011;44284;51.310;16.904;2022-12-07T03:45:43;5.28;;;2.53;;
58496;SDS011;44284;51.310;16.904;2022-12-07T03:48:25;4.75;;;2.60;;
58496;SDS011;44284;51.310;16.904;2022-12-07T03:50:55;4.97;;;2.20;;
58496;SDS011;44284;51.310;16.904;2022-12-07T03:53:28;4.80;;;2.33;;
58496;SDS011;44284;51.310;16.904;2022-12-07T03:55:57;4.35;;;1.70;;
58496;SDS011;44284;51.310;16.904;2022-12-07T03:58:23;2.78;;;1.38;;
58496;SDS011;44284;51.310;16.904;2022-12-07T04:00:50;2.55;;;1.30;;
58496;SDS011;44284;51.310;16.904;2022-12-07T04:03:17;7.57;;;3.40;;
58496;SDS011;44284;51.310;16.904;2022-12-07T04:05:43;3.28;;;1.70;;
58496;SDS011;44284;51.310;16.904;2022-12-07T04:08:10;4.22;;;1.35;;
58496;SDS011;44284;51.310;16.904;2022-12-07T04:10:36;3.58;;;1.50;;
58496;SDS011;44284;51.310;16.904;2022-12-07T04:13:02;4.03;;;1.75;;
58496;SDS011;44284;51.310;16.904;2022-12-07T04:15:28;5.32;;;2.58;;
58496;SDS011;44284;51.310;16.904;2022-12-07T04:17:54;5.20;;;2.67;;
58496;SDS011;44284;51.310;16.904;2022-12-07T04:20:20;6.55;;;3.08;;
58496;SDS011;44284;51.310;16.904;2022-12-07T04:22:46;5.32;;;2.30;;
58496;SDS011;44284;51.310;16.904;2022-12-07T04:25:12;6.00;;;2.83;;
58496;SDS011;44284;51.310;16.904;2022-12-07T04:27:38;5.45;;;2.72;;
58496;SDS011;44284;51.310;16.904;2022-12-07T04:30:05;6.70;;;3.00;;
58496;SDS011;44284;51.310;16.904;2022-12-07T04:32:31;6.35;;;3.15;;
58496;SDS011;44284;51.310;16.904;2022-12-07T04:34:57;10.43;;;4.72;;
58496;SDS011;44284;51.310;16.904;2022-12-07T04:37:23;16.25;;;6.72;;
58496;SDS011;44284;51.310;16.904;2022-12-07T04:39:49;9.73;;;5.38;;
58496;SDS011;44284;51.310;16.904;2022-12-07T04:42:15;22.25;;;7.85;;
58496;SDS011;44284;51.310;16.904;2022-12-07T04:44:41;37.50;;;11.52;;
58496;SDS011;44284;51.310;16.904;2022-12-07T04:47:08;10.55;;;5.05;;
58496;SDS011;44284;51.310;16.904;2022-12-07T04:49:34;17.27;;;6.57;;
58496;SDS011;44284;51.310;16.904;2022-12-07T04:52:02;8.90;;;3.83;;
58496;SDS011;44284;51.310;16.904;2022-12-07T04:54:29;9.52;;;4.95;;
58496;SDS011;44284;51.310;16.904;2022-12-07T04:56:55;11.23;;;5.45;;
58496;SDS011;44284;51.310;16.904;2022-12-07T04:59:21;11.45;;;5.50;;
58496;SDS011;44284;51.310;16.904;2022-12-07T05:01:47;16.80;;;7.43;;
58496;SDS011;44284;51.310;16.904;2022-12-07T05:04:13;17.40;;;5.78;;
58496;SDS011;44284;51.310;16.904;2022-12-07T05:06:41;14.57;;;6.70;;
58496;SDS011;44284;51.310;16.904;2022-12-07T05:09:07;14.75;;;7.03;;
58496;SDS011;44284;51.310;16.904;2022-12-07T05:11:33;12.57;;;5.15;;
58496;SDS011;44284;51.310;16.904;2022-12-07T05:16:31;11.00;;;5.43;;
58496;SDS011;44284;51.310;16.904;2022-12-07T05:18:57;12.65;;;5.75;;
58496;SDS011;44284;51.310;16.904;2022-12-07T05:21:23;14.55;;;6.43;;
58496;SDS011;44284;51.310;16.904;2022-12-07T05:23:49;15.57;;;7.93;;
58496;SDS011;44284;51.310;16.904;2022-12-07T05:26:16;15.30;;;7.10;;
58496;SDS011;44284;51.310;16.904;2022-12-07T05:28:42;23.27;;;8.70;;
58496;SDS011;44284;51.310;16.904;2022-12-07T05:31:08;17.83;;;7.90;;
58496;SDS011;44284;51.310;16.904;2022-12-07T05:33:34;18.88;;;8.55;;
58496;SDS011;44284;51.310;16.904;2022-12-07T05:36:00;17.10;;;7.95;;
58496;SDS011;44284;51.310;16.904;2022-12-07T05:38:32;16.27;;;7.25;;
58496;SDS011;44284;51.310;16.904;2022-12-07T05:41:02;25.05;;;11.70;;
58496;SDS011;44284;51.310;16.904;2022-12-07T05:43:29;23.83;;;9.50;;
58496;SDS011;44284;51.310;16.904;2022-12-07T05:45:55;17.70;;;7.20;;
58496;SDS011;44284;51.310;16.904;2022-12-07T05:48:21;27.33;;;12.30;;
58496;SDS011;44284;51.310;16.904;2022-12-07T05:50:47;24.38;;;10.13;;
58496;SDS011;44284;51.310;16.904;2022-12-07T05:53:14;23.23;;;10.02;;
58496;SDS011;44284;51.310;16.904;2022-12-07T05:55:40;23.60;;;10.82;;
58496;SDS011;44284;51.310;16.904;2022-12-07T05:58:06;24.13;;;11.27;;
58496;SDS011;44284;51.310;16.904;2022-12-07T06:00:50;24.35;;;11.15;;
58496;SDS011;44284;51.310;16.904;2022-12-07T06:03:16;30.05;;;14.32;;
58496;SDS011;44284;51.310;16.904;2022-12-07T06:05:42;24.67;;;11.38;;
58496;SDS011;44284;51.310;16.904;2022-12-07T06:08:08;25.42;;;11.73;;
58496;SDS011;44284;51.310;16.904;2022-12-07T06:10:34;57.28;;;23.02;;
58496;SDS011;44284;51.310;16.904;2022-12-07T06:13:00;35.20;;;13.48;;
58496;SDS011;44284;51.310;16.904;2022-12-07T06:15:27;123.60;;;49.40;;
58496;SDS011;44284;51.310;16.904;2022-12-07T06:17:53;93.38;;;36.65;;
58496;SDS011;44284;51.310;16.904;2022-12-07T06:20:19;46.22;;;17.20;;
58496;SDS011;44284;51.310;16.904;2022-12-07T06:22:45;31.70;;;13.30;;
58496;SDS011;44284;51.310;16.904;2022-12-07T06:25:11;29.90;;;13.10;;
58496;SDS011;44284;51.310;16.904;2022-12-07T06:27:37;32.05;;;14.63;;
58496;SDS011;44284;51.310;16.904;2022-12-07T06:30:03;61.70;;;25.52;;
58496;SDS011;44284;51.310;16.904;2022-12-07T06:32:32;35.33;;;13.77;;
58496;SDS011;44284;51.310;16.904;2022-12-07T06:34:58;26.55;;;11.55;;
58496;SDS011;44284;51.310;16.904;2022-12-07T06:37:25;29.75;;;12.15;;
58496;SDS011;44284;51.310;16.904;2022-12-07T06:39:51;25.92;;;11.95;;
58496;SDS011;44284;51.310;16.904;2022-12-07T06:42:17;55.63;;;21.10;;
58496;SDS011;44284;51.310;16.904;2022-12-07T06:44:43;34.20;;;14.15;;
58496;SDS011;44284;51.310;16.904;2022-12-07T06:47:09;26.83;;;12.40;;
58496;SDS011;44284;51.310;16.904;2022-12-07T06:49:36;46.90;;;20.45;;
58496;SDS011;44284;51.310;16.904;2022-12-07T06:52:02;53.45;;;20.50;;
58496;SDS011;44284;51.310;16.904;2022-12-07T06:54:29;38.20;;;19.13;;
58496;SDS011;44284;51.310;16.904;2022-12-07T06:56:56;53.67;;;22.02;;
58496;SDS011;44284;51.310;16.904;2022-12-07T06:59:22;49.10;;;23.38;;
58496;SDS011;44284;51.310;16.904;2022-12-07T07:01:48;61.28;;;31.73;;
58496;SDS011;44284;51.310;16.904;2022-12-07T07:04:14;52.33;;;23.08;;
58496;SDS011;44284;51.310;16.904;2022-12-07T07:06:40;32.03;;;13.73;;
58496;SDS011;44284;51.310;16.904;2022-12-07T07:09:06;34.05;;;15.00;;
58496;SDS011;44284;51.310;16.904;2022-12-07T07:11:34;55.35;;;24.52;;
58496;SDS011;44284;51.310;16.904;2022-12-07T07:14:00;36.63;;;17.95;;
58496;SDS011;44284;51.310;16.904;2022-12-07T07:16:28;45.28;;;20.02;;
58496;SDS011;44284;51.310;16.904;2022-12-07T07:18:55;56.30;;;23.13;;
58496;SDS011;44284;51.310;16.904;2022-12-07T07:21:21;38.70;;;16.17;;
58496;SDS011;44284;51.310;16.904;2022-12-07T07:23:47;36.83;;;15.38;;
58496;SDS011;44284;51.310;16.904;2022-12-07T07:26:13;25.25;;;13.10;;
58496;SDS011;44284;51.310;16.904;2022-12-07T07:28:40;22.65;;;11.57;;
58496;SDS011;44284;51.310;16.904;2022-12-07T07:31:06;27.60;;;15.45;;
58496;SDS011;44284;51.310;16.904;2022-12-07T07:33:32;35.17;;;16.75;;
58496;SDS011;44284;51.310;16.904;2022-12-07T07:35:58;35.13;;;15.23;;
58496;SDS011;44284;51.310;16.904;2022-12-07T07:38:25;32.00;;;14.00;;
58496;SDS011;44284;51.310;16.904;2022-12-07T07:40:51;22.30;;;11.07;;
58496;SDS011;44284;51.310;16.904;2022-12-07T07:43:17;27.70;;;14.60;;
58496;SDS011;44284;51.310;16.904;2022-12-07T07:45:43;28.25;;;13.82;;
58496;SDS011;44284;51.310;16.904;2022-12-07T07:48:10;35.55;;;16.35;;
58496;SDS011;44284;51.310;16.904;2022-12-07T07:50:36;38.58;;;20.02;;
58496;SDS011;44284;51.310;16.904;2022-12-07T07:53:02;49.85;;;21.70;;
58496;SDS011;44284;51.310;16.904;2022-12-07T07:55:28;38.47;;;19.52;;
58496;SDS011;44284;51.310;16.904;2022-12-07T07:57:54;35.65;;;17.30;;
58496;SDS011;44284;51.310;16.904;2022-12-07T08:00:20;26.80;;;13.40;;
58496;SDS011;44284;51.310;16.904;2022-12-07T08:02:47;29.00;;;13.10;;
58496;SDS011;44284;51.310;16.904;2022-12-07T08:05:13;27.98;;;14.77;;
58496;SDS011;44284;51.310;16.904;2022-12-07T08:07:39;42.97;;;22.52;;
58496;SDS011;44284;51.310;16.904;2022-12-07T08:10:06;48.72;;;22.08;;
58496;SDS011;44284;51.310;16.904;2022-12-07T08:12:35;41.38;;;19.10;;
58496;SDS011;44284;51.310;16.904;2022-12-07T08:15:01;33.13;;;13.98;;
58496;SDS011;44284;51.310;16.904;2022-12-07T08:17:27;30.83;;;14.85;;
58496;SDS011;44284;51.310;16.904;2022-12-07T08:19:53;29.83;;;13.10;;
58496;SDS011;44284;51.310;16.904;2022-12-07T08:22:19;31.45;;;14.50;;
58496;SDS011;44284;51.310;16.904;2022-12-07T08:24:45;23.65;;;10.98;;
58496;SDS011;44284;51.310;16.904;2022-12-07T08:27:11;31.90;;;13.90;;
58496;SDS011;44284;51.310;16.904;2022-12-07T08:29:37;30.05;;;13.07;;
58496;SDS011;44284;51.310;16.904;2022-12-07T08:32:03;26.27;;;11.93;;
58496;SDS011;44284;51.310;16.904;2022-12-07T08:34:30;30.50;;;14.65;;
58496;SDS011;44284;51.310;16.904;2022-12-07T08:36:56;32.00;;;14.35;;
58496;SDS011;44284;51.310;16.904;2022-12-07T08:39:22;30.13;;;14.48;;
58496;SDS011;44284;51.310;16.904;2022-12-07T08:41:48;29.48;;;14.07;;
58496;SDS011;44284;51.310;16.904;2022-12-07T08:44:14;32.80;;;14.13;;
58496;SDS011;44284;51.310;16.904;2022-12-07T08:46:42;48.22;;;21.48;;
58496;SDS011;44284;51.310;16.904;2022-12-07T08:49:11;36.47;;;16.35;;
58496;SDS011;44284;51.310;16.904;2022-12-07T08:51:39;36.72;;;17.42;;
58496;SDS011;44284;51.310;16.904;2022-12-07T08:54:06;27.75;;;12.68;;
58496;SDS011;44284;51.310;16.904;2022-12-07T08:56:33;30.65;;;14.13;;
58496;SDS011;44284;51.310;16.904;2022-12-07T08:59:00;34.63;;;15.50;;
58496;SDS011;44284;51.310;16.904;2022-12-07T09:01:26;30.42;;;12.95;;
58496;SDS011;44284;51.310;16.904;2022-12-07T09:03:52;31.83;;;13.30;;
58496;SDS011;44284;51.310;16.904;2022-12-07T09:06:18;25.23;;;12.30;;
58496;SDS011;44284;51.310;16.904;2022-12-07T09:08:46;25.67;;;11.93;;
58496;SDS011;44284;51.310;16.904;2022-12-07T09:11:13;31.13;;;13.75;;
58496;SDS011;44284;51.310;16.904;2022-12-07T09:13:39;29.50;;;13.45;;
58496;SDS011;44284;51.310;16.904;2022-12-07T09:16:05;31.42;;;13.82;;
58496;SDS011;44284;51.310;16.904;2022-12-07T09:18:31;24.55;;;11.93;;
58496;SDS011;44284;51.310;16.904;2022-12-07T09:20:57;31.65;;;13.98;;
58496;SDS011;44284;51.310;16.904;2022-12-07T09:23:23;29.45;;;13.77;;
58496;SDS011;44284;51.310;16.904;2022-12-07T09:25:49;27.10;;;12.93;;
58496;SDS011;44284;51.310;16.904;2022-12-07T09:28:16;26.40;;;12.13;;
58496;SDS011;44284;51.310;16.904;2022-12-07T09:30:46;23.45;;;11.93;;
58496;SDS011;44284;51.310;16.904;2022-12-07T09:33:12;25.20;;;13.05;;
58496;SDS011;44284;51.310;16.904;2022-12-07T09:35:43;41.45;;;21.13;;
58496;SDS011;44284;51.310;16.904;2022-12-07T09:38:09;30.63;;;15.75;;
58496;SDS011;44284;51.310;16.904;2022-12-07T09:40:35;25.38;;;12.27;;
58496;SDS011;44284;51.310;16.904;2022-12-07T09:43:01;22.20;;;10.32;;
58496;SDS011;44284;51.310;16.904;2022-12-07T09:45:32;23.42;;;11.68;;
58496;SDS011;44284;51.310;16.904;2022-12-07T09:47:59;22.95;;;9.43;;
58496;SDS011;44284;51.310;16.904;2022-12-07T09:50:27;23.23;;;11.48;;
58496;SDS011;44284;51.310;16.904;2022-12-07T09:52:54;24.63;;;12.13;;
58496;SDS011;44284;51.310;16.904;2022-12-07T09:55:24;20.80;;;10.10;;
58496;SDS011;44284;51.310;16.904;2022-12-07T09:57:51;23.70;;;11.10;;
58496;SDS011;44284;51.310;16.904;2022-12-07T10:00:19;22.30;;;10.00;;
58496;SDS011;44284;51.310;16.904;2022-12-07T10:02:50;22.33;;;9.80;;
58496;SDS011;44284;51.310;16.904;2022-12-07T10:05:27;24.48;;;11.63;;
58496;SDS011;44284;51.310;16.904;2022-12-07T10:07:54;21.15;;;10.20;;
58496;SDS011;44284;51.310;16.904;2022-12-07T10:10:30;22.02;;;10.38;;
58496;SDS011;44284;51.310;16.904;2022-12-07T10:13:01;16.63;;;8.85;;
58496;SDS011;44284;51.310;16.904;2022-12-07T10:18:19;20.23;;;8.93;;
58496;SDS011;44284;51.310;16.904;2022-12-07T10:20:46;17.20;;;9.35;;
58496;SDS011;44284;51.310;16.904;2022-12-07T10:23:17;25.02;;;12.48;;
58496;SDS011;44284;51.310;16.904;2022-12-07T10:25:43;26.83;;;12.35;;
58496;SDS011;44284;51.310;16.904;2022-12-07T10:28:17;24.67;;;11.90;;
58496;SDS011;44284;51.310;16.904;2022-12-07T10:33:32;24.15;;;10.60;;
58496;SDS011;44284;51.310;16.904;2022-12-07T10:35:59;24.55;;;11.48;;
58496;SDS011;44284;51.310;16.904;2022-12-07T10:38:27;29.02;;;15.93;;
58496;SDS011;44284;51.310;16.904;2022-12-07T10:41:06;22.83;;;9.40;;
58496;SDS011;44284;51.310;16.904;2022-12-07T10:43:33;41.90;;;18.20;;
58496;SDS011;44284;51.310;16.904;2022-12-07T10:49:09;21.15;;;11.70;;
58496;SDS011;44284;51.310;16.904;2022-12-07T10:51:46;21.55;;;10.52;;
58496;SDS011;44284;51.310;16.904;2022-12-07T10:55:05;25.97;;;11.10;;
58496;SDS011;44284;51.310;16.904;2022-12-07T11:10:21;20.95;;;10.50;;
58496;SDS011;44284;51.310;16.904;2022-12-07T11:38:46;17.58;;;9.65;;
58496;SDS011;44284;51.310;16.904;2022-12-07T11:41:15;16.88;;;9.07;;
58496;SDS011;44284;51.310;16.904;2022-12-07T11:46:18;20.38;;;9.93;;
58496;SDS011;44284;51.310;16.904;2022-12-07T11:48:50;19.10;;;9.77;;
58496;SDS011;44284;51.310;16.904;2022-12-07T11:51:18;45.42;;;27.48;;
58496;SDS011;44284;51.310;16.904;2022-12-07T11:53:50;26.17;;;15.23;;
58496;SDS011;44284;51.310;16.904;2022-12-07T11:56:19;19.15;;;10.00;;
58496;SDS011;44284;51.310;16.904;2022-12-07T11:59:02;19.65;;;9.65;;
58496;SDS011;44284;51.310;16.904;2022-12-07T12:04:14;25.42;;;10.52;;
58496;SDS011;44284;51.310;16.904;2022-12-07T12:06:44;16.80;;;8.77;;
58496;SDS011;44284;51.310;16.904;2022-12-07T12:09:14;23.30;;;12.35;;
58496;SDS011;44284;51.310;16.904;2022-12-07T12:15:12;21.92;;;10.77;;
58496;SDS011;44284;51.310;16.904;2022-12-07T12:21:57;16.65;;;8.93;;
58496;SDS011;44284;51.310;16.904;2022-12-07T12:24:27;17.42;;;9.35;;
58496;SDS011;44284;51.310;16.904;2022-12-07T12:27:29;20.92;;;11.20;;
58496;SDS011;44284;51.310;16.904;2022-12-07T12:29:50;23.23;;;11.63;;
58496;SDS011;44284;51.310;16.904;2022-12-07T12:32:19;21.75;;;10.50;;
58496;SDS011;44284;51.310;16.904;2022-12-07T12:37:29;13.75;;;7.80;;
58496;SDS011;44284;51.310;16.904;2022-12-07T12:42:46;21.30;;;11.02;;
58496;SDS011;44284;51.310;16.904;2022-12-07T13:00:46;15.02;;;9.10;;
58496;SDS011;44284;51.310;16.904;2022-12-07T13:08:42;15.63;;;7.63;;
58496;SDS011;44284;51.310;16.904;2022-12-07T13:11:19;14.43;;;8.18;;
58496;SDS011;44284;51.310;16.904;2022-12-07T13:13:45;13.57;;;7.90;;
58496;SDS011;44284;51.310;16.904;2022-12-07T13:18:38;15.75;;;8.18;;
58496;SDS011;44284;51.310;16.904;2022-12-07T13:23:36;15.35;;;8.48;;
58496;SDS011;44284;51.310;16.904;2022-12-07T13:26:09;16.92;;;9.57;;
58496;SDS011;44284;51.310;16.904;2022-12-07T13:28:39;16.27;;;8.70;;
58496;SDS011;44284;51.310;16.904;2022-12-07T13:33:50;12.23;;;5.90;;
58496;SDS011;44284;51.310;16.904;2022-12-07T13:39:19;11.85;;;7.45;;
58496;SDS011;44284;51.310;16.904;2022-12-07T13:41:54;13.05;;;8.13;;
58496;SDS011;44284;51.310;16.904;2022-12-07T13:44:22;14.98;;;7.38;;
58496;SDS011;44284;51.310;16.904;2022-12-07T13:51:49;14.00;;;7.85;;
58496;SDS011;44284;51.310;16.904;2022-12-07T13:54:16;13.30;;;6.60;;
58496;SDS011;44284;51.310;16.904;2022-12-07T13:56:42;17.77;;;7.20;;
58496;SDS011;44284;51.310;16.904;2022-12-07T13:59:19;12.00;;;6.88;;
58496;SDS011;44284;51.310;16.904;2022-12-07T14:01:46;13.88;;;6.97;;
58496;SDS011;44284;51.310;16.904;2022-12-07T14:06:57;15.48;;;7.97;;
58496;SDS011;44284;51.310;16.904;2022-12-07T14:09:24;13.68;;;8.88;;
58496;SDS011;44284;51.310;16.904;2022-12-07T14:11:52;14.45;;;8.90;;
58496;SDS011;44284;51.310;16.904;2022-12-07T14:14:20;12.93;;;8.10;;
58496;SDS011;44284;51.310;16.904;2022-12-07T14:16:56;13.68;;;7.38;;
58496;SDS011;44284;51.310;16.904;2022-12-07T14:22:08;12.10;;;6.95;;
58496;SDS011;44284;51.310;16.904;2022-12-07T14:24:43;13.27;;;7.85;;
58496;SDS011;44284;51.310;16.904;2022-12-07T14:27:23;15.38;;;7.85;;
58496;SDS011;44284;51.310;16.904;2022-12-07T14:29:55;17.27;;;8.35;;
58496;SDS011;44284;51.310;16.904;2022-12-07T14:32:23;14.48;;;8.18;;
58496;SDS011;44284;51.310;16.904;2022-12-07T14:34:56;17.45;;;7.97;;
58496;SDS011;44284;51.310;16.904;2022-12-07T14:37:23;21.27;;;11.82;;
58496;SDS011;44284;51.310;16.904;2022-12-07T14:39:49;13.52;;;8.38;;
58496;SDS011;44284;51.310;16.904;2022-12-07T14:42:15;11.02;;;6.47;;
58496;SDS011;44284;51.310;16.904;2022-12-07T14:44:41;11.93;;;6.07;;
58496;SDS011;44284;51.310;16.904;2022-12-07T14:47:11;11.23;;;5.30;;
58496;SDS011;44284;51.310;16.904;2022-12-07T14:49:37;12.57;;;6.28;;
58496;SDS011;44284;51.310;16.904;2022-12-07T14:52:03;13.65;;;7.05;;
58496;SDS011;44284;51.310;16.904;2022-12-07T14:54:30;14.77;;;6.93;;
58496;SDS011;44284;51.310;16.904;2022-12-07T14:56:57;11.30;;;6.65;;
58496;SDS011;44284;51.310;16.904;2022-12-07T14:59:23;11.23;;;5.90;;
58496;SDS011;44284;51.310;16.904;2022-12-07T15:01:49;13.60;;;6.72;;
58496;SDS011;44284;51.310;16.904;2022-12-07T15:04:16;12.35;;;6.70;;
58496;SDS011;44284;51.310;16.904;2022-12-07T15:06:42;10.77;;;6.30;;
58496;SDS011;44284;51.310;16.904;2022-12-07T15:09:09;12.23;;;6.05;;
58496;SDS011;44284;51.310;16.904;2022-12-07T15:11:36;12.38;;;6.57;;
58496;SDS011;44284;51.310;16.904;2022-12-07T15:14:02;10.80;;;5.82;;
58496;SDS011;44284;51.310;16.904;2022-12-07T15:16:36;11.85;;;6.25;;
58496;SDS011;44284;51.310;16.904;2022-12-07T15:19:02;12.20;;;5.38;;
58496;SDS011;44284;51.310;16.904;2022-12-07T15:21:29;13.40;;;7.78;;
58496;SDS011;44284;51.310;16.904;2022-12-07T15:23:55;12.70;;;5.68;;
58496;SDS011;44284;51.310;16.904;2022-12-07T15:26:21;10.80;;;5.50;;
58496;SDS011;44284;51.310;16.904;2022-12-07T15:28:47;10.85;;;5.35;;
58496;SDS011;44284;51.310;16.904;2022-12-07T15:31:13;11.88;;;5.35;;
58496;SDS011;44284;51.310;16.904;2022-12-07T15:33:40;8.57;;;4.80;;
58496;SDS011;44284;51.310;16.904;2022-12-07T15:36:06;9.57;;;5.28;;
58496;SDS011;44284;51.310;16.904;2022-12-07T15:38:33;11.07;;;4.95;;
58496;SDS011;44284;51.310;16.904;2022-12-07T15:40:59;13.05;;;5.93;;
58496;SDS011;44284;51.310;16.904;2022-12-07T15:43:25;8.05;;;5.05;;
58496;SDS011;44284;51.310;16.904;2022-12-07T15:46:09;9.80;;;5.43;;
58496;SDS011;44284;51.310;16.904;2022-12-07T15:48:35;11.55;;;5.10;;
58496;SDS011;44284;51.310;16.904;2022-12-07T15:51:05;10.05;;;4.93;;
58496;SDS011;44284;51.310;16.904;2022-12-07T15:53:32;16.50;;;8.35;;
58496;SDS011;44284;51.310;16.904;2022-12-07T15:55:58;24.17;;;9.43;;
58496;SDS011;44284;51.310;16.904;2022-12-07T15:58:24;89.68;;;30.17;;
58496;SDS011;44284;51.310;16.904;2022-12-07T16:00:51;80.50;;;32.50;;
58496;SDS011;44284;51.310;16.904;2022-12-07T16:03:17;122.72;;;44.28;;
58496;SDS011;44284;51.310;16.904;2022-12-07T16:05:48;37.38;;;15.15;;
58496;SDS011;44284;51.310;16.904;2022-12-07T16:08:14;34.45;;;12.23;;
58496;SDS011;44284;51.310;16.904;2022-12-07T16:10:40;29.75;;;15.25;;
58496;SDS011;44284;51.310;16.904;2022-12-07T16:13:12;26.35;;;13.77;;
58496;SDS011;44284;51.310;16.904;2022-12-07T16:15:39;33.17;;;21.10;;
58496;SDS011;44284;51.310;16.904;2022-12-07T16:18:05;43.10;;;24.77;;
58496;SDS011;44284;51.310;16.904;2022-12-07T16:20:31;68.03;;;39.00;;
58496;SDS011;44284;51.310;16.904;2022-12-07T16:22:57;39.45;;;22.70;;
58496;SDS011;44284;51.310;16.904;2022-12-07T16:25:23;59.80;;;33.28;;
58496;SDS011;44284;51.310;16.904;2022-12-07T16:27:50;75.47;;;39.83;;
58496;SDS011;44284;51.310;16.904;2022-12-07T16:30:17;23.20;;;12.38;;
58496;SDS011;44284;51.310;16.904;2022-12-07T16:32:43;25.40;;;11.80;;
58496;SDS011;44284;51.310;16.904;2022-12-07T16:35:09;15.32;;;7.63;;
58496;SDS011;44284;51.310;16.904;2022-12-07T16:37:35;19.65;;;9.70;;
58496;SDS011;44284;51.310;16.904;2022-12-07T16:40:01;17.05;;;9.30;;
58496;SDS011;44284;51.310;16.904;2022-12-07T16:42:31;10.52;;;5.22;;
58496;SDS011;44284;51.310;16.904;2022-12-07T16:44:57;98.35;;;35.58;;